sensor_id;sensor_type;location;lat;lon;timestamp;temperature;humidity
36690;DHT22;22676;51.120;3.702;2023-09-08T00:02:01;28.30;53.20
36690;DHT22;22676;51.120;3.702;2023-09-08T00:04:27;28.30;53.30
36690;DHT22;22676;51.120;3.702;2023-09-08T00:06:52;28.40;53.30
36690;DHT22;22676;51.120;3.702;2023-09-08T00:09:18;28.40;53.30
36690;DHT22;22676;51.120;3.702;2023-09-08T00:11:43;28.50;53.30
36690;DHT22;22676;51.120;3.702;2023-09-08T00:14:09;28.50;53.30
36690;DHT22;22676;51.120;3.702;2023-09-08T00:16:36;28.50;53.20
36690;DHT22;22676;51.120;3.702;2023-09-08T00:19:02;28.40;53.30
36690;DHT22;22676;51.120;3.702;2023-09-08T00:21:28;28.40;53.50
36690;DHT22;22676;51.120;3.702;2023-09-08T00:23:53;28.40;53.60
36690;DHT22;22676;51.120;3.702;2023-09-08T00:26:20;28.30;53.70
36690;DHT22;22676;51.120;3.702;2023-09-08T00:28:46;28.30;53.70
36690;DHT22;22676;51.120;3.702;2023-09-08T00:31:12;28.30;53.80
36690;DHT22;22676;51.120;3.702;2023-09-08T00:33:38;28.20;54.50
36690;DHT22;22676;51.120;3.702;2023-09-08T00:36:04;28.20;54.00
36690;DHT22;22676;51.120;3.702;2023-09-08T00:38:30;28.10;54.00
36690;DHT22;22676;51.120;3.702;2023-09-08T00:40:55;28.10;54.20
36690;DHT22;22676;51.120;3.702;2023-09-08T00:43:21;28.00;54.40
36690;DHT22;22676;51.120;3.702;2023-09-08T00:45:48;28.00;54.60
36690;DHT22;22676;51.120;3.702;2023-09-08T00:48:13;27.90;54.80
36690;DHT22;22676;51.120;3.702;2023-09-08T00:50:39;27.80;54.90
36690;DHT22;22676;51.120;3.702;2023-09-08T00:53:06;27.70;55.10
36690;DHT22;22676;51.120;3.702;2023-09-08T00:55:32;27.60;55.30
36690;DHT22;22676;51.120;3.702;2023-09-08T00:57:58;27.50;55.50
36690;DHT22;22676;51.120;3.702;2023-09-08T01:00:27;27.50;55.70
36690;DHT22;22676;51.120;3.702;2023-09-08T01:02:53;27.40;55.90
36690;DHT22;22676;51.120;3.702;2023-09-08T01:05:19;27.30;56.10
36690;DHT22;22676;51.120;3.702;2023-09-08T01:07:46;27.30;56.30
36690;DHT22;22676;51.120;3.702;2023-09-08T01:10:13;27.20;56.40
36690;DHT22;22676;51.120;3.702;2023-09-08T01:12:39;27.10;56.60
36690;DHT22;22676;51.120;3.702;2023-09-08T01:15:05;27.10;56.70
36690;DHT22;22676;51.120;3.702;2023-09-08T01:17:31;27.10;56.90
36690;DHT22;22676;51.120;3.702;2023-09-08T01:20:10;27.00;56.90
36690;DHT22;22676;51.120;3.702;2023-09-08T01:25:46;27.00;57.10
36690;DHT22;22676;51.120;3.702;2023-09-08T01:28:14;26.90;57.20
36690;DHT22;22676;51.120;3.702;2023-09-08T01:30:41;26.90;57.30
36690;DHT22;22676;51.120;3.702;2023-09-08T01:33:07;26.90;57.30
36690;DHT22;22676;51.120;3.702;2023-09-08T01:35:33;26.80;57.30
36690;DHT22;22676;51.120;3.702;2023-09-08T01:37:59;26.80;57.40
36690;DHT22;22676;51.120;3.702;2023-09-08T01:40:25;26.80;57.60
36690;DHT22;22676;51.120;3.702;2023-09-08T01:42:51;26.80;57.60
36690;DHT22;22676;51.120;3.702;2023-09-08T01:45:17;26.70;57.60
36690;DHT22;22676;51.120;3.702;2023-09-08T01:47:43;26.70;57.60
36690;DHT22;22676;51.120;3.702;2023-09-08T01:50:08;26.70;57.70
36690;DHT22;22676;51.120;3.702;2023-09-08T01:52:34;26.60;57.70
36690;DHT22;22676;51.120;3.702;2023-09-08T01:55:00;26.60;57.80
36690;DHT22;22676;51.120;3.702;2023-09-08T01:57:26;26.60;57.90
36690;DHT22;22676;51.120;3.702;2023-09-08T01:59:51;26.60;57.90
36690;DHT22;22676;51.120;3.702;2023-09-08T02:02:17;26.60;58.00
36690;DHT22;22676;51.120;3.702;2023-09-08T02:04:43;26.60;58.00
36690;DHT22;22676;51.120;3.702;2023-09-08T02:07:08;26.50;58.10
36690;DHT22;22676;51.120;3.702;2023-09-08T02:09:36;26.50;58.10
36690;DHT22;22676;51.120;3.702;2023-09-08T02:12:03;26.50;58.10
36690;DHT22;22676;51.120;3.702;2023-09-08T02:14:29;26.50;58.10
36690;DHT22;22676;51.120;3.702;2023-09-08T02:16:55;26.50;58.10
36690;DHT22;22676;51.120;3.702;2023-09-08T02:19:20;26.50;58.20
36690;DHT22;22676;51.120;3.702;2023-09-08T02:21:46;26.50;58.20
36690;DHT22;22676;51.120;3.702;2023-09-08T02:24:12;26.50;58.20
36690;DHT22;22676;51.120;3.702;2023-09-08T02:26:38;26.50;58.30
36690;DHT22;22676;51.120;3.702;2023-09-08T02:29:04;26.50;58.40
36690;DHT22;22676;51.120;3.702;2023-09-08T02:31:30;26.40;58.40
36690;DHT22;22676;51.120;3.702;2023-09-08T02:33:56;26.40;58.40
36690;DHT22;22676;51.120;3.702;2023-09-08T02:36:22;26.40;58.50
36690;DHT22;22676;51.120;3.702;2023-09-08T02:38:54;26.40;58.60
36690;DHT22;22676;51.120;3.702;2023-09-08T02:41:20;26.40;58.60
36690;DHT22;22676;51.120;3.702;2023-09-08T02:43:47;26.30;58.50
36690;DHT22;22676;51.120;3.702;2023-09-08T02:46:13;26.40;58.60
36690;DHT22;22676;51.120;3.702;2023-09-08T02:48:39;26.30;58.60
36690;DHT22;22676;51.120;3.702;2023-09-08T02:51:04;26.30;58.70
36690;DHT22;22676;51.120;3.702;2023-09-08T02:53:30;26.30;58.60
36690;DHT22;22676;51.120;3.702;2023-09-08T02:55:56;26.30;58.70
36690;DHT22;22676;51.120;3.702;2023-09-08T02:58:22;26.30;58.70
36690;DHT22;22676;51.120;3.702;2023-09-08T03:00:48;26.30;58.80
36690;DHT22;22676;51.120;3.702;2023-09-08T03:03:14;26.30;58.80
36690;DHT22;22676;51.120;3.702;2023-09-08T03:05:39;26.20;58.80
36690;DHT22;22676;51.120;3.702;2023-09-08T03:08:05;26.20;58.80
36690;DHT22;22676;51.120;3.702;2023-09-08T03:10:33;26.20;58.80
36690;DHT22;22676;51.120;3.702;2023-09-08T03:13:02;26.20;58.70
36690;DHT22;22676;51.120;3.702;2023-09-08T03:15:28;26.20;58.70
36690;DHT22;22676;51.120;3.702;2023-09-08T03:17:54;26.20;58.70
36690;DHT22;22676;51.120;3.702;2023-09-08T03:20:20;26.20;58.70
36690;DHT22;22676;51.120;3.702;2023-09-08T03:22:46;26.20;58.80
36690;DHT22;22676;51.120;3.702;2023-09-08T03:25:14;26.20;58.80
36690;DHT22;22676;51.120;3.702;2023-09-08T03:27:40;26.20;58.80
36690;DHT22;22676;51.120;3.702;2023-09-08T03:30:06;26.20;58.80
36690;DHT22;22676;51.120;3.702;2023-09-08T03:32:32;26.20;58.80
36690;DHT22;22676;51.120;3.702;2023-09-08T03:34:57;26.20;58.80
36690;DHT22;22676;51.120;3.702;2023-09-08T03:37:23;26.20;58.80
36690;DHT22;22676;51.120;3.702;2023-09-08T03:39:50;26.10;58.70
36690;DHT22;22676;51.120;3.702;2023-09-08T03:42:16;26.20;58.80
36690;DHT22;22676;51.120;3.702;2023-09-08T03:44:41;26.20;58.80
36690;DHT22;22676;51.120;3.702;2023-09-08T03:47:07;26.20;58.80
36690;DHT22;22676;51.120;3.702;2023-09-08T03:49:33;26.10;58.70
36690;DHT22;22676;51.120;3.702;2023-09-08T03:51:58;26.10;58.80
36690;DHT22;22676;51.120;3.702;2023-09-08T03:54:24;26.10;58.80
36690;DHT22;22676;51.120;3.702;2023-09-08T03:56:50;26.10;58.90
36690;DHT22;22676;51.120;3.702;2023-09-08T03:59:15;26.10;58.80
36690;DHT22;22676;51.120;3.702;2023-09-08T04:01:42;26.10;58.80
36690;DHT22;22676;51.120;3.702;2023-09-08T04:04:07;26.10;58.90
36690;DHT22;22676;51.120;3.702;2023-09-08T04:06:33;26.10;58.80
36690;DHT22;22676;51.120;3.702;2023-09-08T04:08:59;26.10;58.80
36690;DHT22;22676;51.120;3.702;2023-09-08T04:11:25;26.10;58.80
36690;DHT22;22676;51.120;3.702;2023-09-08T04:13:51;26.10;58.80
36690;DHT22;22676;51.120;3.702;2023-09-08T04:16:17;26.10;58.80
36690;DHT22;22676;51.120;3.702;2023-09-08T04:18:43;26.10;58.80
36690;DHT22;22676;51.120;3.702;2023-09-08T04:21:10;26.10;58.80
36690;DHT22;22676;51.120;3.702;2023-09-08T04:23:36;26.10;58.80
36690;DHT22;22676;51.120;3.702;2023-09-08T04:26:02;26.10;58.80
36690;DHT22;22676;51.120;3.702;2023-09-08T04:28:27;26.10;58.80
36690;DHT22;22676;51.120;3.702;2023-09-08T04:30:53;26.10;58.80
36690;DHT22;22676;51.120;3.702;2023-09-08T04:33:19;26.10;58.80
36690;DHT22;22676;51.120;3.702;2023-09-08T04:35:44;26.00;58.80
36690;DHT22;22676;51.120;3.702;2023-09-08T04:38:10;26.10;58.80
36690;DHT22;22676;51.120;3.702;2023-09-08T04:40:39;26.10;58.70
36690;DHT22;22676;51.120;3.702;2023-09-08T04:43:05;26.20;56.60
36690;DHT22;22676;51.120;3.702;2023-09-08T04:45:31;26.20;54.40
36690;DHT22;22676;51.120;3.702;2023-09-08T04:47:56;26.10;53.70
36690;DHT22;22676;51.120;3.702;2023-09-08T04:50:22;26.00;53.10
36690;DHT22;22676;51.120;3.702;2023-09-08T04:52:48;26.00;52.90
36690;DHT22;22676;51.120;3.702;2023-09-08T04:55:13;25.90;52.70
36690;DHT22;22676;51.120;3.702;2023-09-08T04:57:39;25.80;52.40
36690;DHT22;22676;51.120;3.702;2023-09-08T05:00:06;25.70;53.00
36690;DHT22;22676;51.120;3.702;2023-09-08T05:02:32;25.70;52.40
36690;DHT22;22676;51.120;3.702;2023-09-08T05:04:58;25.70;52.50
36690;DHT22;22676;51.120;3.702;2023-09-08T05:07:25;25.70;52.60
36690;DHT22;22676;51.120;3.702;2023-09-08T05:09:51;25.50;52.70
36690;DHT22;22676;51.120;3.702;2023-09-08T05:12:16;25.40;52.50
36690;DHT22;22676;51.120;3.702;2023-09-08T05:14:42;25.30;52.50
36690;DHT22;22676;51.120;3.702;2023-09-08T05:17:08;25.30;53.50
36690;DHT22;22676;51.120;3.702;2023-09-08T05:19:33;25.20;53.10
36690;DHT22;22676;51.120;3.702;2023-09-08T05:21:59;25.20;53.30
36690;DHT22;22676;51.120;3.702;2023-09-08T05:24:25;25.20;53.40
36690;DHT22;22676;51.120;3.702;2023-09-08T05:26:52;25.10;53.60
36690;DHT22;22676;51.120;3.702;2023-09-08T05:29:18;25.10;53.70
36690;DHT22;22676;51.120;3.702;2023-09-08T05:31:44;25.00;54.00
36690;DHT22;22676;51.120;3.702;2023-09-08T05:34:10;25.00;54.30
36690;DHT22;22676;51.120;3.702;2023-09-08T05:36:36;25.00;54.50
36690;DHT22;22676;51.120;3.702;2023-09-08T05:39:04;25.00;54.50
36690;DHT22;22676;51.120;3.702;2023-09-08T05:41:30;25.00;54.40
36690;DHT22;22676;51.120;3.702;2023-09-08T05:43:57;25.00;54.30
36690;DHT22;22676;51.120;3.702;2023-09-08T05:46:23;25.00;54.40
36690;DHT22;22676;51.120;3.702;2023-09-08T05:48:48;25.00;54.40
36690;DHT22;22676;51.120;3.702;2023-09-08T05:51:14;25.00;54.40
36690;DHT22;22676;51.120;3.702;2023-09-08T05:53:40;25.00;54.50
36690;DHT22;22676;51.120;3.702;2023-09-08T05:56:06;25.10;54.50
36690;DHT22;22676;51.120;3.702;2023-09-08T05:58:33;25.00;54.50
36690;DHT22;22676;51.120;3.702;2023-09-08T06:01:03;25.00;54.50
36690;DHT22;22676;51.120;3.702;2023-09-08T06:03:29;25.00;54.60
36690;DHT22;22676;51.120;3.702;2023-09-08T06:05:55;25.00;55.00
36690;DHT22;22676;51.120;3.702;2023-09-08T06:08:21;25.00;55.40
36690;DHT22;22676;51.120;3.702;2023-09-08T06:10:47;25.00;55.90
36690;DHT22;22676;51.120;3.702;2023-09-08T06:13:12;25.00;56.00
36690;DHT22;22676;51.120;3.702;2023-09-08T06:15:38;25.00;56.30
36690;DHT22;22676;51.120;3.702;2023-09-08T06:18:04;25.00;56.50
36690;DHT22;22676;51.120;3.702;2023-09-08T06:20:30;25.00;56.60
36690;DHT22;22676;51.120;3.702;2023-09-08T06:22:55;25.00;57.00
36690;DHT22;22676;51.120;3.702;2023-09-08T06:25:21;25.00;57.70
36690;DHT22;22676;51.120;3.702;2023-09-08T06:27:47;25.10;57.50
36690;DHT22;22676;51.120;3.702;2023-09-08T06:30:12;25.00;57.60
36690;DHT22;22676;51.120;3.702;2023-09-08T06:32:39;25.10;57.60
36690;DHT22;22676;51.120;3.702;2023-09-08T06:35:05;25.10;57.70
36690;DHT22;22676;51.120;3.702;2023-09-08T06:37:38;25.10;57.80
36690;DHT22;22676;51.120;3.702;2023-09-08T06:40:05;25.20;58.10
36690;DHT22;22676;51.120;3.702;2023-09-08T06:42:31;25.20;58.90
36690;DHT22;22676;51.120;3.702;2023-09-08T06:44:57;25.20;58.60
36690;DHT22;22676;51.120;3.702;2023-09-08T06:47:22;25.20;58.80
36690;DHT22;22676;51.120;3.702;2023-09-08T06:49:48;25.20;59.20
36690;DHT22;22676;51.120;3.702;2023-09-08T06:52:14;25.20;59.20
36690;DHT22;22676;51.120;3.702;2023-09-08T06:54:39;25.20;59.30
36690;DHT22;22676;51.120;3.702;2023-09-08T06:57:05;25.30;58.90
36690;DHT22;22676;51.120;3.702;2023-09-08T06:59:31;25.30;59.20
36690;DHT22;22676;51.120;3.702;2023-09-08T07:01:56;25.30;59.10
36690;DHT22;22676;51.120;3.702;2023-09-08T07:04:22;25.30;59.20
36690;DHT22;22676;51.120;3.702;2023-09-08T07:06:48;25.40;59.10
36690;DHT22;22676;51.120;3.702;2023-09-08T07:09:15;25.30;58.90
36690;DHT22;22676;51.120;3.702;2023-09-08T07:11:41;25.40;59.00
36690;DHT22;22676;51.120;3.702;2023-09-08T07:14:07;25.40;59.10
36690;DHT22;22676;51.120;3.702;2023-09-08T07:16:32;25.40;59.00
36690;DHT22;22676;51.120;3.702;2023-09-08T07:18:58;25.40;58.90
36690;DHT22;22676;51.120;3.702;2023-09-08T07:21:26;25.40;58.80
36690;DHT22;22676;51.120;3.702;2023-09-08T07:23:52;25.40;58.70
36690;DHT22;22676;51.120;3.702;2023-09-08T07:26:19;25.40;58.70
36690;DHT22;22676;51.120;3.702;2023-09-08T07:28:45;25.50;59.40
36690;DHT22;22676;51.120;3.702;2023-09-08T07:31:11;25.50;58.90
36690;DHT22;22676;51.120;3.702;2023-09-08T07:33:37;25.50;58.90
36690;DHT22;22676;51.120;3.702;2023-09-08T07:36:07;25.50;59.00
36690;DHT22;22676;51.120;3.702;2023-09-08T07:38:34;25.50;59.20
36690;DHT22;22676;51.120;3.702;2023-09-08T07:41:00;25.60;59.20
36690;DHT22;22676;51.120;3.702;2023-09-08T07:43:27;25.70;59.60
36690;DHT22;22676;51.120;3.702;2023-09-08T07:45:52;25.70;59.50
36690;DHT22;22676;51.120;3.702;2023-09-08T07:48:18;25.70;59.90
36690;DHT22;22676;51.120;3.702;2023-09-08T07:50:44;25.70;60.00
36690;DHT22;22676;51.120;3.702;2023-09-08T07:53:09;25.70;60.30
36690;DHT22;22676;51.120;3.702;2023-09-08T07:55:35;25.80;60.50
36690;DHT22;22676;51.120;3.702;2023-09-08T07:58:01;25.80;61.10
36690;DHT22;22676;51.120;3.702;2023-09-08T08:00:29;25.90;61.80
36690;DHT22;22676;51.120;3.702;2023-09-08T08:02:56;25.80;61.70
36690;DHT22;22676;51.120;3.702;2023-09-08T08:05:22;25.90;62.80
36690;DHT22;22676;51.120;3.702;2023-09-08T08:07:48;25.80;61.50
36690;DHT22;22676;51.120;3.702;2023-09-08T08:10:14;25.80;61.30
36690;DHT22;22676;51.120;3.702;2023-09-08T08:12:40;25.80;61.20
36690;DHT22;22676;51.120;3.702;2023-09-08T08:15:07;25.90;61.80
36690;DHT22;22676;51.120;3.702;2023-09-08T08:17:33;26.00;62.40
36690;DHT22;22676;51.120;3.702;2023-09-08T08:19:58;25.90;61.90
36690;DHT22;22676;51.120;3.702;2023-09-08T08:22:27;25.90;62.30
36690;DHT22;22676;51.120;3.702;2023-09-08T08:24:52;25.90;62.30
36690;DHT22;22676;51.120;3.702;2023-09-08T08:27:18;25.90;62.50
36690;DHT22;22676;51.120;3.702;2023-09-08T08:29:44;26.00;62.00
36690;DHT22;22676;51.120;3.702;2023-09-08T08:32:09;26.00;61.90
36690;DHT22;22676;51.120;3.702;2023-09-08T08:34:36;26.00;62.20
36690;DHT22;22676;51.120;3.702;2023-09-08T08:37:02;26.00;62.40
36690;DHT22;22676;51.120;3.702;2023-09-08T08:39:28;26.10;62.50
36690;DHT22;22676;51.120;3.702;2023-09-08T08:41:54;26.10;62.50
36690;DHT22;22676;51.120;3.702;2023-09-08T08:44:20;26.10;62.90
36690;DHT22;22676;51.120;3.702;2023-09-08T08:46:46;26.20;62.80
36690;DHT22;22676;51.120;3.702;2023-09-08T08:49:15;26.20;62.70
36690;DHT22;22676;51.120;3.702;2023-09-08T08:51:44;26.20;62.60
36690;DHT22;22676;51.120;3.702;2023-09-08T08:54:13;26.30;62.70
36690;DHT22;22676;51.120;3.702;2023-09-08T08:56:39;26.30;62.60
36690;DHT22;22676;51.120;3.702;2023-09-08T08:59:06;26.30;62.70
36690;DHT22;22676;51.120;3.702;2023-09-08T09:01:32;26.30;63.40
36690;DHT22;22676;51.120;3.702;2023-09-08T09:03:58;26.30;63.30
36690;DHT22;22676;51.120;3.702;2023-09-08T09:06:24;26.30;63.10
36690;DHT22;22676;51.120;3.702;2023-09-08T09:08:50;26.40;63.10
36690;DHT22;22676;51.120;3.702;2023-09-08T09:11:16;26.50;62.60
36690;DHT22;22676;51.120;3.702;2023-09-08T09:13:41;26.50;62.50
36690;DHT22;22676;51.120;3.702;2023-09-08T09:16:07;26.50;62.30
36690;DHT22;22676;51.120;3.702;2023-09-08T09:18:56;26.50;62.10
36690;DHT22;22676;51.120;3.702;2023-09-08T09:21:23;26.50;62.00
36690;DHT22;22676;51.120;3.702;2023-09-08T09:23:49;26.50;62.00
36690;DHT22;22676;51.120;3.702;2023-09-08T09:26:26;26.50;61.80
36690;DHT22;22676;51.120;3.702;2023-09-08T09:28:52;26.60;61.60
36690;DHT22;22676;51.120;3.702;2023-09-08T09:31:23;26.60;61.60
36690;DHT22;22676;51.120;3.702;2023-09-08T09:34:04;26.60;61.40
36690;DHT22;22676;51.120;3.702;2023-09-08T09:36:30;26.70;61.20
36690;DHT22;22676;51.120;3.702;2023-09-08T09:39:00;26.70;61.00
36690;DHT22;22676;51.120;3.702;2023-09-08T09:41:29;26.70;60.80
36690;DHT22;22676;51.120;3.702;2023-09-08T09:43:56;26.70;60.70
36690;DHT22;22676;51.120;3.702;2023-09-08T09:46:22;26.70;60.70
36690;DHT22;22676;51.120;3.702;2023-09-08T09:48:54;26.70;60.60
36690;DHT22;22676;51.120;3.702;2023-09-08T09:51:22;26.70;60.50
36690;DHT22;22676;51.120;3.702;2023-09-08T09:53:50;26.70;60.50
36690;DHT22;22676;51.120;3.702;2023-09-08T09:56:17;26.70;60.30
36690;DHT22;22676;51.120;3.702;2023-09-08T09:58:44;26.70;60.20
36690;DHT22;22676;51.120;3.702;2023-09-08T10:01:11;26.80;60.20
36690;DHT22;22676;51.120;3.702;2023-09-08T10:03:39;26.80;60.00
36690;DHT22;22676;51.120;3.702;2023-09-08T10:06:05;26.80;59.90
36690;DHT22;22676;51.120;3.702;2023-09-08T10:08:34;26.80;59.60
36690;DHT22;22676;51.120;3.702;2023-09-08T10:11:07;26.80;59.70
36690;DHT22;22676;51.120;3.702;2023-09-08T10:13:42;26.80;59.80
36690;DHT22;22676;51.120;3.702;2023-09-08T10:16:15;26.80;59.60
36690;DHT22;22676;51.120;3.702;2023-09-08T10:18:44;26.80;59.60
36690;DHT22;22676;51.120;3.702;2023-09-08T10:21:12;26.80;59.40
36690;DHT22;22676;51.120;3.702;2023-09-08T10:23:44;26.80;59.30
36690;DHT22;22676;51.120;3.702;2023-09-08T10:26:16;26.80;59.40
36690;DHT22;22676;51.120;3.702;2023-09-08T10:28:43;26.80;59.40
36690;DHT22;22676;51.120;3.702;2023-09-08T10:31:09;26.80;59.70
36690;DHT22;22676;51.120;3.702;2023-09-08T10:33:37;26.80;59.60
36690;DHT22;22676;51.120;3.702;2023-09-08T10:36:03;26.80;59.80
36690;DHT22;22676;51.120;3.702;2023-09-08T10:38:34;26.90;60.30
36690;DHT22;22676;51.120;3.702;2023-09-08T10:43:45;27.00;61.10
36690;DHT22;22676;51.120;3.702;2023-09-08T10:46:21;27.00;61.90
36690;DHT22;22676;51.120;3.702;2023-09-08T10:48:47;27.00;61.70
36690;DHT22;22676;51.120;3.702;2023-09-08T10:51:22;27.10;61.90
36690;DHT22;22676;51.120;3.702;2023-09-08T10:53:49;27.10;61.80
36690;DHT22;22676;51.120;3.702;2023-09-08T10:56:16;27.00;61.40
36690;DHT22;22676;51.120;3.702;2023-09-08T10:58:42;27.00;61.50
36690;DHT22;22676;51.120;3.702;2023-09-08T11:01:13;27.00;61.40
36690;DHT22;22676;51.120;3.702;2023-09-08T11:06:06;27.00;61.30
36690;DHT22;22676;51.120;3.702;2023-09-08T11:08:41;27.10;61.50
36690;DHT22;22676;51.120;3.702;2023-09-08T11:11:07;27.20;61.40
36690;DHT22;22676;51.120;3.702;2023-09-08T11:13:32;27.20;60.80
36690;DHT22;22676;51.120;3.702;2023-09-08T11:15:58;27.40;60.50
36690;DHT22;22676;51.120;3.702;2023-09-08T11:18:31;27.40;60.30
36690;DHT22;22676;51.120;3.702;2023-09-08T11:20:59;27.40;60.40
36690;DHT22;22676;51.120;3.702;2023-09-08T11:23:25;27.50;60.00
36690;DHT22;22676;51.120;3.702;2023-09-08T11:25:52;27.60;59.80
36690;DHT22;22676;51.120;3.702;2023-09-08T11:28:19;27.70;59.50
36690;DHT22;22676;51.120;3.702;2023-09-08T11:30:47;27.80;59.40
36690;DHT22;22676;51.120;3.702;2023-09-08T11:33:21;27.80;59.20
36690;DHT22;22676;51.120;3.702;2023-09-08T11:35:54;27.90;59.00
36690;DHT22;22676;51.120;3.702;2023-09-08T11:38:27;27.90;58.90
36690;DHT22;22676;51.120;3.702;2023-09-08T11:40:57;28.00;58.80
36690;DHT22;22676;51.120;3.702;2023-09-08T11:43:23;28.10;58.60
36690;DHT22;22676;51.120;3.702;2023-09-08T11:45:50;28.10;58.40
36690;DHT22;22676;51.120;3.702;2023-09-08T11:48:16;28.20;58.30
36690;DHT22;22676;51.120;3.702;2023-09-08T11:50:42;28.30;58.10
36690;DHT22;22676;51.120;3.702;2023-09-08T11:53:09;28.30;57.90
36690;DHT22;22676;51.120;3.702;2023-09-08T11:55:35;28.30;57.70
36690;DHT22;22676;51.120;3.702;2023-09-08T11:58:03;28.40;57.70
36690;DHT22;22676;51.120;3.702;2023-09-08T12:00:30;28.50;57.60
36690;DHT22;22676;51.120;3.702;2023-09-08T12:02:55;28.50;57.40
36690;DHT22;22676;51.120;3.702;2023-09-08T12:05:34;28.50;57.20
36690;DHT22;22676;51.120;3.702;2023-09-08T12:07:59;28.50;57.10
36690;DHT22;22676;51.120;3.702;2023-09-08T12:10:30;28.50;57.20
36690;DHT22;22676;51.120;3.702;2023-09-08T12:13:02;28.50;57.20
36690;DHT22;22676;51.120;3.702;2023-09-08T12:15:39;28.50;57.20
36690;DHT22;22676;51.120;3.702;2023-09-08T12:18:07;28.50;57.10
36690;DHT22;22676;51.120;3.702;2023-09-08T12:20:34;28.60;57.10
36690;DHT22;22676;51.120;3.702;2023-09-08T12:23:02;28.60;57.00
36690;DHT22;22676;51.120;3.702;2023-09-08T12:25:28;28.60;56.90
36690;DHT22;22676;51.120;3.702;2023-09-08T12:27:57;28.60;56.90
36690;DHT22;22676;51.120;3.702;2023-09-08T12:30:23;28.60;56.90
36690;DHT22;22676;51.120;3.702;2023-09-08T12:32:57;28.70;56.90
36690;DHT22;22676;51.120;3.702;2023-09-08T12:35:26;28.60;56.90
36690;DHT22;22676;51.120;3.702;2023-09-08T12:38:00;28.70;56.80
36690;DHT22;22676;51.120;3.702;2023-09-08T12:40:26;28.70;56.60
36690;DHT22;22676;51.120;3.702;2023-09-08T12:42:53;28.70;56.60
36690;DHT22;22676;51.120;3.702;2023-09-08T12:45:20;28.70;56.50
36690;DHT22;22676;51.120;3.702;2023-09-08T12:47:46;28.80;56.50
36690;DHT22;22676;51.120;3.702;2023-09-08T12:50:12;28.80;56.40
36690;DHT22;22676;51.120;3.702;2023-09-08T12:52:39;28.80;56.40
36690;DHT22;22676;51.120;3.702;2023-09-08T12:55:05;28.80;56.40
36690;DHT22;22676;51.120;3.702;2023-09-08T12:57:31;28.80;56.30
36690;DHT22;22676;51.120;3.702;2023-09-08T12:59:56;28.80;56.30
36690;DHT22;22676;51.120;3.702;2023-09-08T13:02:22;28.90;56.30
36690;DHT22;22676;51.120;3.702;2023-09-08T13:04:48;28.90;56.20
36690;DHT22;22676;51.120;3.702;2023-09-08T13:07:17;28.90;56.10
36690;DHT22;22676;51.120;3.702;2023-09-08T13:09:44;28.90;56.10
36690;DHT22;22676;51.120;3.702;2023-09-08T13:12:10;28.90;56.00
36690;DHT22;22676;51.120;3.702;2023-09-08T13:14:38;28.90;56.00
36690;DHT22;22676;51.120;3.702;2023-09-08T13:17:03;28.90;56.00
36690;DHT22;22676;51.120;3.702;2023-09-08T13:19:29;28.90;56.10
36690;DHT22;22676;51.120;3.702;2023-09-08T13:21:55;29.00;56.10
36690;DHT22;22676;51.120;3.702;2023-09-08T13:24:21;29.00;56.00
36690;DHT22;22676;51.120;3.702;2023-09-08T13:26:47;29.10;55.90
36690;DHT22;22676;51.120;3.702;2023-09-08T13:29:13;29.10;55.70
36690;DHT22;22676;51.120;3.702;2023-09-08T13:31:39;29.20;55.60
36690;DHT22;22676;51.120;3.702;2023-09-08T13:34:04;29.20;55.40
36690;DHT22;22676;51.120;3.702;2023-09-08T13:36:30;29.20;55.30
36690;DHT22;22676;51.120;3.702;2023-09-08T13:38:56;29.30;55.20
36690;DHT22;22676;51.120;3.702;2023-09-08T13:41:23;29.40;55.10
36690;DHT22;22676;51.120;3.702;2023-09-08T13:43:49;29.40;55.00
36690;DHT22;22676;51.120;3.702;2023-09-08T13:46:14;29.40;54.90
36690;DHT22;22676;51.120;3.702;2023-09-08T13:48:40;29.30;55.00
36690;DHT22;22676;51.120;3.702;2023-09-08T13:51:06;29.30;55.10
36690;DHT22;22676;51.120;3.702;2023-09-08T13:53:31;29.20;55.10
36690;DHT22;22676;51.120;3.702;2023-09-08T13:55:57;29.20;55.20
36690;DHT22;22676;51.120;3.702;2023-09-08T13:58:23;29.20;55.90
36690;DHT22;22676;51.120;3.702;2023-09-08T14:00:48;29.10;55.40
36690;DHT22;22676;51.120;3.702;2023-09-08T14:03:16;29.10;55.40
36690;DHT22;22676;51.120;3.702;2023-09-08T14:05:42;29.10;55.40
36690;DHT22;22676;51.120;3.702;2023-09-08T14:08:07;29.10;55.50
36690;DHT22;22676;51.120;3.702;2023-09-08T14:10:33;29.00;55.60
36690;DHT22;22676;51.120;3.702;2023-09-08T14:12:59;29.00;55.70
36690;DHT22;22676;51.120;3.702;2023-09-08T14:15:25;28.90;55.70
36690;DHT22;22676;51.120;3.702;2023-09-08T14:17:50;28.90;56.40
36690;DHT22;22676;51.120;3.702;2023-09-08T14:20:16;28.90;56.00
36690;DHT22;22676;51.120;3.702;2023-09-08T14:22:42;28.80;56.10
36690;DHT22;22676;51.120;3.702;2023-09-08T14:25:07;28.70;56.40
36690;DHT22;22676;51.120;3.702;2023-09-08T14:27:33;28.60;56.40
36690;DHT22;22676;51.120;3.702;2023-09-08T14:30:00;28.60;56.60
36690;DHT22;22676;51.120;3.702;2023-09-08T14:32:26;28.50;56.50
36690;DHT22;22676;51.120;3.702;2023-09-08T14:34:52;28.60;56.50
36690;DHT22;22676;51.120;3.702;2023-09-08T14:37:18;28.50;56.50
36690;DHT22;22676;51.120;3.702;2023-09-08T14:39:43;28.60;56.60
36690;DHT22;22676;51.120;3.702;2023-09-08T14:42:09;28.50;56.80
36690;DHT22;22676;51.120;3.702;2023-09-08T14:44:35;28.40;56.70
36690;DHT22;22676;51.120;3.702;2023-09-08T14:47:00;28.40;57.00
36690;DHT22;22676;51.120;3.702;2023-09-08T14:49:27;28.30;57.00
36690;DHT22;22676;51.120;3.702;2023-09-08T14:51:53;28.30;57.10
36690;DHT22;22676;51.120;3.702;2023-09-08T14:54:19;28.30;57.40
36690;DHT22;22676;51.120;3.702;2023-09-08T14:56:44;28.30;57.50
36690;DHT22;22676;51.120;3.702;2023-09-08T14:59:10;28.30;57.50
36690;DHT22;22676;51.120;3.702;2023-09-08T15:01:36;28.30;57.50
36690;DHT22;22676;51.120;3.702;2023-09-08T15:04:04;28.30;57.50
36690;DHT22;22676;51.120;3.702;2023-09-08T15:06:29;28.30;57.50
36690;DHT22;22676;51.120;3.702;2023-09-08T15:08:55;28.30;57.70
36690;DHT22;22676;51.120;3.702;2023-09-08T15:11:21;28.20;57.70
36690;DHT22;22676;51.120;3.702;2023-09-08T15:13:46;28.20;57.90
36690;DHT22;22676;51.120;3.702;2023-09-08T15:16:12;28.20;57.90
36690;DHT22;22676;51.120;3.702;2023-09-08T15:18:40;28.20;58.10
36690;DHT22;22676;51.120;3.702;2023-09-08T15:21:05;28.20;57.70
36690;DHT22;22676;51.120;3.702;2023-09-08T15:23:31;28.20;58.20
36690;DHT22;22676;51.120;3.702;2023-09-08T15:25:57;28.10;58.10
36690;DHT22;22676;51.120;3.702;2023-09-08T15:28:23;28.00;58.60
36690;DHT22;22676;51.120;3.702;2023-09-08T15:30:50;28.00;58.90
36690;DHT22;22676;51.120;3.702;2023-09-08T15:33:17;28.00;59.00
36690;DHT22;22676;51.120;3.702;2023-09-08T15:35:45;28.00;59.20